createdAt,value
2018-07-08T00:00:40.463Z,3.33
2018-07-08T00:03:07.721Z,3.37
2018-07-08T00:05:34.951Z,3.40
2018-07-08T00:08:02.256Z,2.80
2018-07-08T00:10:29.687Z,3.00
2018-07-08T00:12:56.917Z,2.73
2018-07-08T00:15:24.127Z,2.67
2018-07-08T00:17:52.495Z,2.70
2018-07-08T00:20:19.720Z,2.63
2018-07-08T00:22:47.016Z,2.70
2018-07-08T00:25:14.347Z,2.70
2018-07-08T00:27:41.559Z,2.50
2018-07-08T00:30:08.779Z,2.90
2018-07-08T00:32:36.023Z,3.03
2018-07-08T00:35:03.271Z,3.00
2018-07-08T00:37:30.492Z,3.00
2018-07-08T00:40:00.900Z,3.10
2018-07-08T00:42:28.112Z,2.33
2018-07-08T00:44:55.330Z,2.50
2018-07-08T00:47:22.601Z,2.50
2018-07-08T00:49:49.824Z,2.63
2018-07-08T00:52:17.132Z,2.77
2018-07-08T00:54:44.434Z,2.27
2018-07-08T00:57:12.680Z,2.90
2018-07-08T00:59:39.949Z,3.37
2018-07-08T01:02:07.176Z,4.47
2018-07-08T01:04:35.556Z,2.87
2018-07-08T01:07:02.894Z,3.40
2018-07-08T01:09:30.208Z,3.60
2018-07-08T01:11:57.427Z,3.50
2018-07-08T01:14:26.671Z,3.67
2018-07-08T01:16:53.927Z,3.60
2018-07-08T01:19:21.296Z,5.97
2018-07-08T01:21:48.519Z,3.93
2018-07-08T01:24:15.744Z,3.23
2018-07-08T01:26:42.985Z,3.57
2018-07-08T01:29:10.281Z,3.77
2018-07-08T01:31:37.579Z,3.70
2018-07-08T01:34:04.811Z,3.50
2018-07-08T01:36:32.143Z,3.53
2018-07-08T01:38:59.355Z,3.63
2018-07-08T01:41:26.569Z,3.40
2018-07-08T01:43:53.892Z,3.87
2018-07-08T01:46:21.204Z,3.10
2018-07-08T01:48:48.468Z,3.73
2018-07-08T01:51:15.700Z,3.67
2018-07-08T01:53:43.440Z,3.67
2018-07-08T01:56:10.702Z,3.20
2018-07-08T01:58:38.057Z,3.23
2018-07-08T02:01:05.732Z,3.90
2018-07-08T02:03:32.980Z,4.43
2018-07-08T02:06:00.267Z,3.67
2018-07-08T02:08:27.512Z,3.73
2018-07-08T02:10:54.739Z,3.50
2018-07-08T02:13:22.036Z,4.27
2018-07-08T02:15:49.272Z,4.07
2018-07-08T02:18:16.472Z,4.47
2018-07-08T02:20:43.700Z,3.73
2018-07-08T02:23:10.955Z,4.07
2018-07-08T02:25:38.249Z,5.60
2018-07-08T02:28:05.476Z,4.00
2018-07-08T02:30:32.732Z,4.40
2018-07-08T02:32:59.960Z,3.57
2018-07-08T02:35:27.232Z,3.90
2018-07-08T02:37:54.824Z,4.47
2018-07-08T02:40:22.240Z,3.10
2018-07-08T02:42:49.684Z,3.03
2018-07-08T02:45:17.226Z,3.67
2018-07-08T02:47:45.084Z,4.20
2018-07-08T02:50:12.502Z,4.10
2018-07-08T02:52:39.950Z,3.57
2018-07-08T02:55:07.404Z,3.20
2018-07-08T02:57:34.909Z,4.67
2018-07-08T03:00:02.380Z,4.23
2018-07-08T03:02:29.871Z,3.93
2018-07-08T03:04:57.368Z,4.27
2018-07-08T03:07:24.855Z,3.80
2018-07-08T03:09:52.275Z,3.80
2018-07-08T03:12:19.684Z,3.77
2018-07-08T03:14:47.107Z,3.70
2018-07-08T03:17:14.554Z,4.00
2018-07-08T03:19:41.960Z,3.50
2018-07-08T03:22:09.412Z,3.47
2018-07-08T03:24:36.826Z,3.60
2018-07-08T03:27:04.238Z,4.10
2018-07-08T03:29:31.648Z,3.50
2018-07-08T03:31:59.050Z,3.93
2018-07-08T03:34:26.536Z,4.10
2018-07-08T03:36:53.970Z,4.00
2018-07-08T03:39:21.379Z,3.60
2018-07-08T03:41:52.350Z,4.50
2018-07-08T03:44:19.560Z,4.20
2018-07-08T03:46:46.750Z,4.27
2018-07-08T03:49:13.956Z,4.57
2018-07-08T03:51:41.156Z,3.93
2018-07-08T03:54:20.095Z,4.20
2018-07-08T03:56:47.531Z,3.70
2018-07-08T03:59:14.950Z,4.90
2018-07-08T04:01:42.355Z,4.37
2018-07-08T04:04:09.772Z,4.00
2018-07-08T04:06:37.179Z,4.10
2018-07-08T04:09:05.915Z,4.23
2018-07-08T04:11:33.467Z,3.70
2018-07-08T04:14:00.884Z,4.23
2018-07-08T04:16:28.340Z,4.80
2018-07-08T04:18:55.760Z,4.40
2018-07-08T04:21:23.183Z,4.33
2018-07-08T04:23:50.599Z,4.23
2018-07-08T04:26:18.015Z,4.70
2018-07-08T04:28:45.431Z,4.67
2018-07-08T04:31:12.858Z,4.47
2018-07-08T04:33:40.285Z,5.03
2018-07-08T04:36:07.715Z,4.47
2018-07-08T04:38:35.144Z,4.20
2018-07-08T04:41:02.612Z,4.77
2018-07-08T04:43:30.016Z,4.50
2018-07-08T04:45:57.470Z,4.20
2018-07-08T04:48:24.915Z,4.47
2018-07-08T04:50:52.436Z,4.70
2018-07-08T04:53:19.866Z,4.33
2018-07-08T04:55:47.300Z,4.27
2018-07-08T04:58:14.863Z,4.07
2018-07-08T05:00:42.362Z,4.43
2018-07-08T05:03:09.756Z,3.60
2018-07-08T05:05:37.192Z,4.17
2018-07-08T05:08:04.756Z,4.03
2018-07-08T05:10:32.208Z,4.07
2018-07-08T05:12:59.655Z,4.20
2018-07-08T05:15:27.068Z,3.70
2018-07-08T05:17:54.531Z,3.70
2018-07-08T05:20:21.990Z,3.90
2018-07-08T05:22:49.404Z,4.10
2018-07-08T05:25:16.819Z,4.43
2018-07-08T05:27:44.318Z,3.70
2018-07-08T05:30:11.756Z,4.30
2018-07-08T05:32:39.163Z,3.87
2018-07-08T05:35:06.631Z,4.70
2018-07-08T05:37:34.084Z,4.00
2018-07-08T05:40:01.497Z,4.23
2018-07-08T05:42:29.004Z,4.20
2018-07-08T05:44:56.454Z,4.33
2018-07-08T05:47:23.864Z,5.50
2018-07-08T05:49:51.279Z,4.30
2018-07-08T05:52:18.703Z,6.50
2018-07-08T05:54:46.109Z,4.20
2018-07-08T05:57:13.535Z,5.43
2018-07-08T05:59:41.036Z,4.27
2018-07-08T06:02:08.451Z,4.67
2018-07-08T06:04:35.867Z,5.00
2018-07-08T06:07:03.282Z,4.17
2018-07-08T06:09:30.685Z,4.80
2018-07-08T06:11:58.176Z,3.90
2018-07-08T06:14:25.608Z,4.87
2018-07-08T06:16:53.091Z,6.30
2018-07-08T06:19:20.504Z,5.83
2018-07-08T06:21:47.944Z,5.43
2018-07-08T06:24:15.370Z,6.70
2018-07-08T06:26:42.819Z,5.57
2018-07-08T06:29:10.278Z,6.00
2018-07-08T06:31:37.755Z,7.23
2018-07-08T06:34:05.165Z,6.70
2018-07-08T06:36:32.564Z,5.70
2018-07-08T06:38:59.994Z,5.30
2018-07-08T06:41:27.408Z,5.37
2018-07-08T06:43:54.828Z,6.40
2018-07-08T06:46:22.227Z,5.97
2018-07-08T06:48:49.680Z,4.43
2018-07-08T06:51:17.111Z,6.00
2018-07-08T06:53:44.587Z,4.33
2018-07-08T06:56:12.005Z,5.37
2018-07-08T06:58:39.460Z,5.87
2018-07-08T07:01:06.915Z,4.30
2018-07-08T07:03:34.349Z,3.77
2018-07-08T07:06:01.766Z,4.37
2018-07-08T07:08:29.196Z,3.80
2018-07-08T07:10:56.604Z,4.63
2018-07-08T07:13:24.005Z,4.03
2018-07-08T07:15:51.476Z,4.63
2018-07-08T07:18:18.987Z,5.07
2018-07-08T07:20:46.436Z,4.50
2018-07-08T07:23:13.853Z,7.00
2018-07-08T07:25:41.263Z,6.30
2018-07-08T07:28:08.708Z,6.13
2018-07-08T07:30:36.227Z,5.20
2018-07-08T07:33:03.664Z,5.70
2018-07-08T07:35:31.237Z,5.33
2018-07-08T07:37:58.667Z,6.30
2018-07-08T07:40:26.120Z,5.90
2018-07-08T07:42:53.520Z,6.00
2018-07-08T07:45:21.136Z,5.40
2018-07-08T07:47:48.561Z,4.57
2018-07-08T07:50:15.981Z,3.63
2018-07-08T07:52:43.389Z,3.30
2018-07-08T07:55:10.824Z,2.37
2018-07-08T07:57:39.331Z,2.30
2018-07-08T08:00:06.809Z,2.30
2018-07-08T08:02:34.360Z,1.60
2018-07-08T08:05:01.831Z,1.80
2018-07-08T08:07:29.295Z,1.80
2018-07-08T08:09:56.715Z,1.83
2018-07-08T08:12:24.115Z,1.60
2018-07-08T08:14:51.540Z,2.10
2018-07-08T08:17:18.972Z,2.47
2018-07-08T08:19:46.470Z,1.73
2018-07-08T08:22:13.909Z,1.83
2018-07-08T08:24:43.428Z,2.17
2018-07-08T08:27:11.911Z,1.80
2018-07-08T08:29:39.359Z,2.10
2018-07-08T08:32:06.777Z,2.10
2018-07-08T08:34:56.394Z,1.50
2018-07-08T08:37:29.323Z,1.73
2018-07-08T08:39:56.619Z,2.30
2018-07-08T08:42:23.928Z,1.80
2018-07-08T08:44:51.906Z,1.47
2018-07-08T08:47:19.579Z,1.70
2018-07-08T08:49:48.069Z,1.70
2018-07-08T08:52:15.327Z,1.50
2018-07-08T08:54:42.536Z,1.80
2018-07-08T08:57:10.356Z,1.90
2018-07-08T08:59:37.625Z,1.57
2018-07-08T09:02:05.279Z,2.07
2018-07-08T09:04:32.785Z,1.70
2018-07-08T09:07:00.272Z,1.60
2018-07-08T09:09:27.696Z,1.47
2018-07-08T09:11:55.116Z,1.77
2018-07-08T09:14:22.534Z,2.00
2018-07-08T09:16:50.547Z,2.10
2018-07-08T09:19:17.968Z,2.03
2018-07-08T09:21:45.380Z,1.93
2018-07-08T09:24:12.835Z,1.40
2018-07-08T09:26:40.236Z,1.63
2018-07-08T09:29:08.186Z,2.03
2018-07-08T09:31:35.607Z,1.70
2018-07-08T09:34:03.120Z,2.03
2018-07-08T09:36:30.664Z,2.13
2018-07-08T09:38:58.297Z,2.03
2018-07-08T09:41:25.855Z,2.03
2018-07-08T09:43:53.435Z,2.07
2018-07-08T09:46:20.828Z,3.03
2018-07-08T09:48:48.242Z,2.00
2018-07-08T09:51:15.663Z,1.93
2018-07-08T09:53:43.059Z,2.13
2018-07-08T09:56:10.528Z,1.77
2018-07-08T09:58:40.169Z,1.90
2018-07-08T10:01:07.415Z,2.10
2018-07-08T10:03:34.835Z,1.67
2018-07-08T10:06:04.418Z,1.70
2018-07-08T10:08:31.976Z,1.30
2018-07-08T10:10:59.210Z,1.50
2018-07-08T10:13:27.512Z,1.30
2018-07-08T10:15:54.788Z,2.00
2018-07-08T10:18:22.149Z,1.47
2018-07-08T10:20:49.384Z,1.23
2018-07-08T10:23:16.591Z,1.20
2018-07-08T10:25:44.444Z,1.20
2018-07-08T10:28:16.020Z,1.60
2018-07-08T10:30:43.400Z,1.00
2018-07-08T10:33:10.719Z,1.17
2018-07-08T10:36:01.057Z,1.50
2018-07-08T10:38:28.312Z,1.33
2018-07-08T10:40:55.643Z,1.97
2018-07-08T10:43:22.963Z,1.37
2018-07-08T10:45:50.156Z,1.40
2018-07-08T10:48:17.371Z,1.57
2018-07-08T10:50:44.590Z,0.90
2018-07-08T10:53:11.866Z,1.10
2018-07-08T10:55:39.243Z,1.10
2018-07-08T10:58:06.765Z,1.30
2018-07-08T11:00:34.257Z,0.97
2018-07-08T11:03:01.693Z,1.37
2018-07-08T11:05:29.120Z,1.17
2018-07-08T11:07:56.965Z,1.20
2018-07-08T11:10:24.528Z,1.40
2018-07-08T11:12:51.968Z,1.50
2018-07-08T11:15:19.371Z,1.03
2018-07-08T11:17:47.324Z,1.27
2018-07-08T11:20:14.763Z,1.10
2018-07-08T11:22:42.180Z,1.37
2018-07-08T11:25:09.744Z,1.10
2018-07-08T11:27:37.275Z,1.00
2018-07-08T11:30:05.435Z,1.10
2018-07-08T11:32:32.980Z,1.00
2018-07-08T11:35:00.396Z,1.00
2018-07-08T11:37:27.836Z,1.00
2018-07-08T11:39:55.369Z,1.30
2018-07-08T11:42:22.820Z,1.20
2018-07-08T11:44:50.269Z,1.00
2018-07-08T11:47:17.704Z,1.17
2018-07-08T11:49:45.143Z,1.40
2018-07-08T11:52:12.568Z,3.87
2018-07-08T11:54:40.072Z,2.97
2018-07-08T11:57:07.532Z,1.60
2018-07-08T11:59:34.953Z,0.80
2018-07-08T12:02:02.433Z,1.33
2018-07-08T12:04:29.856Z,1.10
2018-07-08T12:06:57.383Z,0.90
2018-07-08T12:09:24.853Z,0.87
2018-07-08T12:11:52.249Z,1.10
2018-07-08T12:14:19.748Z,1.00
2018-07-08T12:16:47.135Z,1.10
2018-07-08T12:19:14.572Z,1.10
2018-07-08T12:21:41.966Z,1.27
2018-07-08T12:24:09.474Z,1.23
2018-07-08T12:26:36.956Z,1.17
2018-07-08T12:29:04.455Z,0.90
2018-07-08T12:31:31.882Z,1.10
2018-07-08T12:33:59.436Z,0.93
2018-07-08T12:36:26.948Z,1.53
2018-07-08T12:38:56.485Z,1.30
2018-07-08T12:41:23.922Z,1.10
2018-07-08T12:43:51.432Z,1.30
2018-07-08T12:46:18.956Z,1.10
2018-07-08T12:48:46.447Z,1.30
2018-07-08T12:51:14.053Z,1.10
2018-07-08T12:53:43.494Z,1.10
2018-07-08T12:56:11.120Z,1.50
2018-07-08T12:58:38.577Z,1.10
2018-07-08T13:01:07.025Z,1.43
2018-07-08T13:03:34.225Z,1.60
2018-07-08T13:06:01.468Z,2.03
2018-07-08T13:08:28.667Z,1.63
2018-07-08T13:10:56.074Z,1.80
2018-07-08T13:13:23.509Z,1.33
2018-07-08T13:15:50.940Z,1.53
2018-07-08T13:18:18.348Z,1.70
2018-07-08T13:20:47.372Z,1.53
2018-07-08T13:23:14.657Z,1.30
2018-07-08T13:25:42.076Z,1.80
2018-07-08T13:28:09.511Z,1.63
2018-07-08T13:30:36.976Z,1.70
2018-07-08T13:33:06.808Z,1.67
2018-07-08T13:35:34.239Z,1.70
2018-07-08T13:38:01.648Z,2.17
2018-07-08T13:40:29.151Z,1.80
2018-07-08T13:42:56.635Z,1.80
2018-07-08T13:45:24.095Z,1.60
2018-07-08T13:47:51.568Z,1.53
2018-07-08T13:50:20.043Z,1.40
2018-07-08T13:52:47.464Z,1.70
2018-07-08T13:55:14.968Z,1.53
2018-07-08T13:57:42.480Z,1.90
2018-07-08T14:00:10.052Z,1.70
2018-07-08T14:02:37.441Z,1.90
2018-07-08T14:05:04.884Z,1.90
2018-07-08T14:07:33.576Z,2.00
2018-07-08T14:10:01.088Z,1.90
2018-07-08T14:12:28.513Z,1.67
2018-07-08T14:14:55.951Z,1.97
2018-07-08T14:17:23.437Z,1.60
2018-07-08T14:19:51.037Z,2.00
2018-07-08T14:22:18.453Z,1.97
2018-07-08T14:24:45.856Z,2.00
2018-07-08T14:27:13.260Z,2.23
2018-07-08T14:29:40.755Z,2.50
2018-07-08T14:32:08.159Z,2.23
2018-07-08T14:34:35.634Z,1.87
2018-07-08T14:37:03.139Z,2.17
2018-07-08T14:39:30.561Z,2.10
2018-07-08T14:41:57.993Z,2.10
2018-07-08T14:44:26.450Z,2.37
2018-07-08T14:46:53.889Z,1.70
2018-07-08T14:49:21.244Z,1.90
2018-07-08T14:51:48.667Z,4.40
2018-07-08T14:54:16.141Z,3.00
2018-07-08T14:56:43.583Z,2.20
2018-07-08T14:59:11.047Z,3.03
2018-07-08T15:01:38.452Z,2.20
2018-07-08T15:04:05.879Z,1.90
2018-07-08T15:06:33.312Z,2.47
2018-07-08T15:09:06.079Z,2.50
2018-07-08T15:11:33.508Z,1.80
2018-07-08T15:14:00.945Z,2.20
2018-07-08T15:16:28.563Z,2.33
2018-07-08T15:18:56.085Z,1.90
2018-07-08T15:21:23.601Z,1.70
2018-07-08T15:23:51.121Z,2.10
2018-07-08T15:26:18.540Z,2.83
2018-07-08T15:28:46.055Z,8.90
2018-07-08T15:31:14.508Z,3.00
2018-07-08T15:33:41.731Z,2.03
2018-07-08T15:36:09.169Z,3.80
2018-07-08T15:38:36.587Z,4.00
2018-07-08T15:41:04.126Z,2.33
2018-07-08T15:43:31.884Z,2.10
2018-07-08T15:45:59.468Z,2.77
2018-07-08T15:48:26.910Z,2.53
2018-07-08T15:50:54.415Z,2.20
2018-07-08T15:53:21.906Z,1.77
2018-07-08T15:55:49.334Z,2.27
2018-07-08T15:58:16.860Z,2.43
2018-07-08T16:00:44.366Z,2.30
2018-07-08T16:03:11.819Z,1.63
2018-07-08T16:05:39.624Z,2.40
2018-07-08T16:08:07.048Z,2.20
2018-07-08T16:10:34.640Z,1.90
2018-07-08T16:13:03.190Z,2.60
2018-07-08T16:15:30.644Z,2.50
2018-07-08T16:17:58.411Z,3.17
2018-07-08T16:20:25.839Z,2.50
2018-07-08T16:22:53.249Z,2.47
2018-07-08T16:25:20.759Z,2.57
2018-07-08T16:27:48.420Z,2.30
2018-07-08T16:30:15.879Z,3.07
2018-07-08T16:32:43.316Z,3.30
2018-07-08T16:35:10.782Z,4.50
2018-07-08T16:37:38.201Z,2.60
2018-07-08T16:40:05.630Z,2.23
2018-07-08T16:42:33.076Z,2.80
2018-07-08T16:45:00.524Z,2.37
2018-07-08T16:47:28.680Z,2.00
2018-07-08T16:49:56.131Z,2.40
2018-07-08T16:52:23.678Z,1.80
2018-07-08T16:54:51.100Z,2.20
2018-07-08T16:57:18.555Z,2.13
2018-07-08T16:59:46.200Z,2.10
2018-07-08T17:02:13.734Z,2.40
2018-07-08T17:04:41.187Z,2.27
2018-07-08T17:07:08.619Z,1.80
2018-07-08T17:09:37.165Z,2.70
2018-07-08T17:12:05.030Z,2.37
2018-07-08T17:14:32.501Z,2.00
2018-07-08T17:16:59.943Z,2.00
2018-07-08T17:19:27.462Z,1.90
2018-07-08T17:21:55.614Z,1.90
2018-07-08T17:24:23.042Z,2.00
2018-07-08T17:26:51.984Z,2.20
2018-07-08T17:29:19.208Z,1.83
2018-07-08T17:31:46.436Z,2.50
2018-07-08T17:34:13.647Z,2.00
2018-07-08T17:36:42.249Z,2.10
2018-07-08T17:39:09.537Z,1.73
2018-07-08T17:41:37.395Z,2.00
2018-07-08T17:44:05.887Z,2.60
2018-07-08T17:46:33.125Z,1.57
2018-07-08T17:49:00.383Z,2.20
2018-07-08T17:51:27.655Z,2.00
2018-07-08T17:53:55.162Z,2.20
2018-07-08T17:56:22.597Z,2.67
2018-07-08T17:58:50.047Z,2.13
2018-07-08T18:01:17.592Z,2.63
2018-07-08T18:03:45.408Z,2.00
2018-07-08T18:06:12.854Z,1.87
2018-07-08T18:08:40.407Z,2.10
2018-07-08T18:11:07.847Z,2.10
2018-07-08T18:13:35.245Z,2.43
2018-07-08T18:16:02.652Z,2.37
2018-07-08T18:18:30.108Z,2.00
2018-07-08T18:20:57.532Z,1.87
2018-07-08T18:23:24.976Z,1.50
2018-07-08T18:25:52.467Z,1.60
2018-07-08T18:28:19.949Z,1.60
2018-07-08T18:30:47.416Z,1.60
2018-07-08T18:33:14.904Z,2.07
2018-07-08T18:35:42.475Z,1.80
2018-07-08T18:38:10.024Z,2.20
2018-07-08T18:40:37.619Z,1.87
2018-07-08T18:43:05.196Z,1.87
2018-07-08T18:45:32.624Z,1.50
2018-07-08T18:48:00.060Z,1.80
2018-07-08T18:50:27.599Z,1.87
2018-07-08T18:52:55.147Z,1.90
2018-07-08T18:55:22.681Z,1.57
2018-07-08T18:57:50.179Z,1.60
2018-07-08T19:00:17.740Z,1.93
2018-07-08T19:02:45.380Z,2.13
2018-07-08T19:05:12.960Z,1.90
2018-07-08T19:07:40.518Z,1.60
2018-07-08T19:10:07.973Z,1.80
2018-07-08T19:12:35.696Z,1.50
2018-07-08T19:15:03.117Z,1.80
2018-07-08T19:17:30.555Z,2.20
2018-07-08T19:19:58.060Z,1.53
2018-07-08T19:22:25.556Z,1.80
2018-07-08T19:24:53.831Z,1.77
2018-07-08T19:27:21.335Z,1.90
2018-07-08T19:29:48.915Z,1.50
2018-07-08T19:32:17.492Z,1.77
2018-07-08T19:34:45.023Z,1.67
2018-07-08T19:37:12.544Z,1.70
2018-07-08T19:39:40.052Z,1.83
2018-07-08T19:42:07.692Z,2.60
2018-07-08T19:44:35.148Z,1.57
2018-07-08T19:47:03.537Z,1.70
2018-07-08T19:49:31.035Z,1.60
2018-07-08T19:51:58.557Z,1.90
2018-07-08T19:54:26.955Z,1.67
2018-07-08T19:56:54.580Z,1.90
2018-07-08T19:59:22.692Z,1.83
2018-07-08T20:01:50.151Z,2.00
2018-07-08T20:04:17.802Z,1.90
2018-07-08T20:06:46.014Z,1.60
2018-07-08T20:09:13.802Z,2.20
2018-07-08T20:11:41.486Z,1.93
2018-07-08T20:14:09.020Z,1.90
2018-07-08T20:16:36.730Z,2.00
2018-07-08T20:19:04.176Z,2.20
2018-07-08T20:21:31.807Z,1.60
2018-07-08T20:23:59.187Z,1.87
2018-07-08T20:26:26.636Z,1.83
2018-07-08T20:28:54.156Z,2.60
2018-07-08T20:31:21.663Z,1.60
2018-07-08T20:33:49.090Z,1.57
2018-07-08T20:36:16.520Z,1.87
2018-07-08T20:38:44.043Z,2.50
2018-07-08T20:41:11.579Z,2.00
2018-07-08T20:43:39.055Z,2.70
2018-07-08T20:46:06.588Z,2.60
2018-07-08T20:48:34.052Z,2.50
2018-07-08T20:51:01.580Z,1.97
2018-07-08T20:53:29.016Z,2.43
2018-07-08T20:55:56.594Z,1.93
2018-07-08T20:58:24.179Z,2.00
2018-07-08T21:00:51.639Z,2.13
2018-07-08T21:03:19.149Z,2.03
2018-07-08T21:05:46.576Z,2.37
2018-07-08T21:08:14.052Z,7.50
2018-07-08T21:10:41.488Z,2.73
2018-07-08T21:13:08.900Z,2.20
2018-07-08T21:15:36.311Z,2.97
2018-07-08T21:18:04.019Z,2.40
2018-07-08T21:20:31.459Z,2.53
2018-07-08T21:22:58.907Z,2.20
2018-07-08T21:25:26.359Z,2.10
2018-07-08T21:27:53.804Z,2.30
2018-07-08T21:30:21.309Z,2.00
2018-07-08T21:32:48.939Z,2.20
2018-07-08T21:35:16.400Z,2.37
2018-07-08T21:37:43.976Z,2.10
2018-07-08T21:40:11.424Z,2.00
2018-07-08T21:42:38.851Z,2.60
2018-07-08T21:45:06.415Z,2.33
2018-07-08T21:47:33.892Z,2.00
2018-07-08T21:50:01.320Z,2.10
2018-07-08T21:52:28.749Z,2.60
2018-07-08T21:54:56.251Z,2.13
2018-07-08T21:57:23.755Z,2.83
2018-07-08T21:59:51.196Z,3.00
2018-07-08T22:02:19.832Z,2.27
2018-07-08T22:04:47.442Z,3.50
2018-07-08T22:07:20.889Z,2.63
2018-07-08T22:09:48.581Z,2.33
2018-07-08T22:12:16.229Z,2.43
2018-07-08T22:14:43.700Z,2.10
2018-07-08T22:17:11.135Z,2.40
2018-07-08T22:19:38.988Z,2.40
2018-07-08T22:22:06.930Z,2.60
2018-07-08T22:24:34.743Z,2.93
2018-07-08T22:27:02.415Z,2.20
2018-07-08T22:29:29.863Z,2.50
2018-07-08T22:31:57.292Z,3.30
2018-07-08T22:34:24.808Z,2.40
2018-07-08T22:36:52.327Z,2.40
2018-07-08T22:39:19.852Z,2.63
2018-07-08T22:41:47.284Z,2.63
2018-07-08T22:44:14.723Z,3.10
2018-07-08T22:46:43.210Z,2.87
2018-07-08T22:49:10.739Z,2.73
2018-07-08T22:51:38.191Z,2.43
2018-07-08T22:54:05.707Z,2.70
2018-07-08T22:56:33.159Z,2.87
2018-07-08T22:59:00.668Z,2.53
2018-07-08T23:01:39.737Z,3.63
2018-07-08T23:04:07.187Z,2.97
2018-07-08T23:06:34.645Z,3.00
2018-07-08T23:09:03.605Z,2.43
2018-07-08T23:11:31.072Z,2.97
2018-07-08T23:13:58.834Z,3.00
2018-07-08T23:16:26.796Z,2.67
2018-07-08T23:18:55.400Z,2.67
2018-07-08T23:21:23.888Z,3.00
2018-07-08T23:23:51.291Z,3.47
2018-07-08T23:26:18.706Z,3.00
2018-07-08T23:28:46.164Z,2.97
2018-07-08T23:31:13.663Z,3.00
2018-07-08T23:33:41.089Z,3.73
2018-07-08T23:36:09.291Z,3.23
2018-07-08T23:38:36.759Z,3.07
2018-07-08T23:41:05.365Z,3.40
2018-07-08T23:43:32.946Z,3.27
2018-07-08T23:46:01.032Z,3.00
2018-07-08T23:48:28.480Z,3.30
2018-07-08T23:50:56.043Z,3.20
2018-07-08T23:53:23.577Z,2.90
2018-07-08T23:55:51.076Z,2.50
2018-07-08T23:58:18.579Z,2.83
